createdAt,value
2019-05-20T00:00:56.632Z,95790.20
2019-05-20T00:03:23.715Z,95785.13
2019-05-20T00:05:51.438Z,95781.80
2019-05-20T00:08:18.864Z,95788.06
2019-05-20T00:19:22.135Z,95765.20
2019-05-20T00:21:50.451Z,95760.52
2019-05-20T00:24:17.416Z,95756.81
2019-05-20T00:26:44.419Z,95757.59
2019-05-20T00:29:11.551Z,95759.54
2019-05-20T00:31:38.632Z,95763.06
2019-05-20T00:34:05.851Z,95760.91
2019-05-20T00:36:34.193Z,95765.59
2019-05-20T00:39:20.296Z,95767.34
2019-05-20T00:41:49.081Z,95763.66
2019-05-20T00:44:20.188Z,95749.59
2019-05-20T00:46:47.139Z,95754.26
2019-05-20T00:49:14.239Z,95759.34
2019-05-20T00:51:41.831Z,95761.28
2019-05-20T00:54:09.472Z,95763.05
2019-05-20T00:56:37.241Z,95751.50
2019-05-20T00:59:05.041Z,95746.64
2019-05-20T01:01:32.253Z,95738.83
2019-05-20T01:03:59.942Z,95729.84
2019-05-20T01:06:27.307Z,95732.58
2019-05-20T01:08:55.035Z,95731.58
2019-05-20T01:11:24.962Z,95725.74
2019-05-20T01:13:52.254Z,95718.91
2019-05-20T01:16:19.534Z,95720.84
2019-05-20T01:18:47.009Z,95702.72
2019-05-20T01:21:14.087Z,95689.82
2019-05-20T01:23:43.224Z,95685.34
2019-05-20T01:26:10.455Z,95684.75
2019-05-20T01:28:38.061Z,95689.05
2019-05-20T01:31:05.155Z,95696.09
2019-05-20T01:33:32.463Z,95693.34
2019-05-20T01:35:59.751Z,95687.11
2019-05-20T01:38:27.163Z,95682.80
2019-05-20T01:40:54.296Z,95679.67
2019-05-20T01:43:21.723Z,95680.06
2019-05-20T01:45:49.210Z,95682.59
2019-05-20T01:48:16.485Z,95675.17
2019-05-20T01:50:43.999Z,95665.41
2019-05-20T01:53:11.815Z,95661.73
2019-05-20T01:55:39.476Z,95662.70
2019-05-20T01:58:07.810Z,95672.64
2019-05-20T02:00:35.003Z,95666.80
2019-05-20T02:03:02.741Z,95667.19
2019-05-20T02:05:30.194Z,95682.80
2019-05-20T02:07:58.916Z,95657.63
2019-05-20T02:10:26.551Z,95656.27
2019-05-20T02:12:53.803Z,95657.63
2019-05-20T02:24:19.103Z,95660.16
2019-05-20T02:26:46.456Z,95673.03
2019-05-20T02:29:13.466Z,95673.05
2019-05-20T02:31:40.519Z,95676.92
2019-05-20T02:34:08.584Z,95710.09
2019-05-20T02:36:35.733Z,95715.55
2019-05-20T02:39:05.652Z,95697.98
2019-05-20T02:41:33.027Z,95680.80
2019-05-20T02:44:00.067Z,95682.58
2019-05-20T02:46:27.133Z,95676.94
2019-05-20T02:48:54.223Z,95668.73
2019-05-20T02:51:24.260Z,95666.02
2019-05-20T02:53:51.492Z,95664.84
2019-05-20T02:56:18.612Z,95656.22
2019-05-20T02:58:46.355Z,95646.83
2019-05-20T03:01:14.430Z,95647.05
2019-05-20T03:03:41.957Z,95648.41
2019-05-20T03:06:09.920Z,95641.77
2019-05-20T03:08:36.970Z,95623.98
2019-05-20T03:11:04.123Z,95614.59
2019-05-20T03:13:31.222Z,95626.34
2019-05-20T03:15:58.761Z,95633.36
2019-05-20T03:18:26.839Z,95632.41
2019-05-20T03:20:54.601Z,95635.34
2019-05-20T03:23:21.921Z,95634.77
2019-05-20T03:25:49.360Z,95618.58
2019-05-20T03:28:16.661Z,95602.75
2019-05-20T03:30:43.925Z,95582.48
2019-05-20T03:33:11.141Z,95562.95
2019-05-20T03:35:38.628Z,95549.48
2019-05-20T03:38:06.155Z,95539.53
2019-05-20T03:40:33.253Z,95549.48
2019-05-20T03:43:00.432Z,95558.66
2019-05-20T03:45:27.622Z,95564.50
2019-05-20T03:47:55.171Z,95547.13
2019-05-20T03:50:22.321Z,95536.00
2019-05-20T03:52:49.639Z,95516.28
2019-05-20T03:55:17.150Z,95501.25
2019-05-20T03:57:44.343Z,95507.30
2019-05-20T04:00:12.110Z,95505.72
2019-05-20T04:02:39.247Z,95521.34
2019-05-20T04:05:06.690Z,95532.27
2019-05-20T04:07:33.619Z,95545.72
2019-05-20T04:10:00.827Z,95533.81
2019-05-20T04:12:28.937Z,95531.66
2019-05-20T04:14:56.049Z,95512.92
2019-05-20T04:17:23.091Z,95522.69
2019-05-20T04:19:49.982Z,95532.05
2019-05-20T04:22:17.013Z,95520.34
2019-05-20T04:24:44.004Z,95521.91
2019-05-20T04:27:11.016Z,95518.36
2019-05-20T04:29:38.511Z,95512.30
2019-05-20T04:32:05.429Z,95524.00
2019-05-20T04:34:32.873Z,95524.97
2019-05-20T04:36:59.911Z,95526.34
2019-05-20T04:39:27.048Z,95526.12
2019-05-20T04:41:54.199Z,95540.96
2019-05-20T04:44:22.161Z,95536.86
2019-05-20T04:46:49.436Z,95537.80
2019-05-20T04:49:16.683Z,95550.08
2019-05-20T04:51:43.845Z,95563.53
2019-05-20T04:54:11.750Z,95577.79
2019-05-20T04:56:38.828Z,95581.09
2019-05-20T04:59:06.221Z,95596.13
2019-05-20T05:01:33.055Z,95606.10
2019-05-20T05:04:00.154Z,95606.91
2019-05-20T05:06:28.660Z,95598.31
2019-05-20T05:08:56.113Z,95608.67
2019-05-20T05:11:24.010Z,95603.20
2019-05-20T05:13:52.145Z,95586.78
2019-05-20T05:16:19.669Z,95592.06
2019-05-20T05:18:46.991Z,95586.16
2019-05-20T05:21:14.088Z,95583.39
2019-05-20T05:23:41.602Z,95580.42
2019-05-20T05:26:09.782Z,95581.16
2019-05-20T05:28:36.724Z,95570.17
2019-05-20T05:31:04.217Z,95548.41
2019-05-20T05:33:31.596Z,95567.91
2019-05-20T05:35:58.799Z,95576.52
2019-05-20T05:38:26.173Z,95578.28
2019-05-20T05:40:53.267Z,95564.79
2019-05-20T05:43:20.446Z,95543.67
2019-05-20T05:45:47.635Z,95533.34
2019-05-20T05:48:14.753Z,95549.78
2019-05-20T05:50:41.965Z,95568.70
2019-05-20T05:53:09.024Z,95559.64
2019-05-20T05:55:36.215Z,95558.41
2019-05-20T05:58:03.660Z,95577.92
2019-05-20T06:00:30.961Z,95572.67
2019-05-20T06:02:58.010Z,95587.95
2019-05-20T06:05:25.326Z,95570.38
2019-05-20T06:07:52.461Z,95573.72
2019-05-20T06:10:21.103Z,95543.67
2019-05-20T06:12:50.837Z,95549.71
2019-05-20T06:15:18.931Z,95549.13
2019-05-20T06:17:46.141Z,95560.23
2019-05-20T06:20:15.383Z,95568.30
2019-05-20T06:22:42.509Z,95573.60
2019-05-20T06:25:13.527Z,95577.47
2019-05-20T06:27:40.605Z,95577.00
2019-05-20T06:30:10.486Z,95582.63
2019-05-20T06:32:37.615Z,95586.84
2019-05-20T06:35:07.129Z,95586.13
2019-05-20T06:37:41.906Z,95588.11
2019-05-20T06:40:09.416Z,95603.19
2019-05-20T06:42:37.379Z,95600.34
2019-05-20T06:45:07.448Z,95600.80
2019-05-20T06:47:34.907Z,95609.23
2019-05-20T06:50:05.180Z,95613.98
2019-05-20T06:52:35.868Z,95616.27
2019-05-20T06:55:02.048Z,95640.81
2019-05-20T06:57:29.443Z,95643.14
2019-05-20T06:59:56.448Z,95654.67
2019-05-20T07:02:23.453Z,95637.45
2019-05-20T07:04:50.643Z,95647.27
2019-05-20T07:07:20.946Z,95652.80
2019-05-20T07:09:46.728Z,95653.47
2019-05-20T07:12:14.030Z,95661.18
2019-05-20T07:14:41.205Z,95660.39
2019-05-20T07:17:08.198Z,95660.39
2019-05-20T07:19:35.487Z,95678.94
2019-05-20T07:22:02.784Z,95668.84
2019-05-20T07:24:30.146Z,95674.39
2019-05-20T07:26:57.148Z,95674.81
2019-05-20T07:29:24.179Z,95690.71
2019-05-20T07:31:51.441Z,95695.11
2019-05-20T07:34:21.060Z,95708.89
2019-05-20T07:37:01.958Z,95703.67
2019-05-20T07:39:19.292Z,95708.42
2019-05-20T07:41:46.531Z,95701.14
2019-05-20T07:44:15.884Z,95723.18
2019-05-20T07:46:43.194Z,95724.38
2019-05-20T07:49:10.691Z,95732.45
2019-05-20T07:51:39.475Z,95730.56
2019-05-20T07:54:07.541Z,95728.77
2019-05-20T07:56:40.239Z,95730.70
2019-05-20T07:59:11.437Z,95732.90
2019-05-20T08:01:38.946Z,95753.17
2019-05-20T08:04:06.301Z,95767.48
2019-05-20T08:06:34.345Z,95761.06
2019-05-20T08:09:01.675Z,95761.81
2019-05-20T08:11:29.296Z,95767.28
2019-05-20T08:13:57.057Z,95771.51
2019-05-20T08:16:24.179Z,95767.77
2019-05-20T08:18:51.615Z,95784.09
2019-05-20T08:21:18.796Z,95779.72
2019-05-20T08:23:49.584Z,95778.34
2019-05-20T08:26:15.178Z,95782.62
2019-05-20T08:28:42.500Z,95796.23
2019-05-20T08:31:09.985Z,95796.15
2019-05-20T08:33:37.293Z,95784.51
2019-05-20T08:36:04.955Z,95786.11
2019-05-20T08:38:32.042Z,95774.75
2019-05-20T08:40:59.146Z,95770.55
2019-05-20T08:43:26.515Z,95779.40
2019-05-20T08:45:53.692Z,95778.02
2019-05-20T08:48:20.731Z,95778.77
2019-05-20T08:50:47.621Z,95788.80
2019-05-20T08:53:14.982Z,95794.50
2019-05-20T08:55:41.903Z,95792.34
2019-05-20T08:58:09.251Z,95800.90
2019-05-20T09:00:36.153Z,95800.16
2019-05-20T09:03:03.244Z,95803.34
2019-05-20T09:05:30.394Z,95801.42
2019-05-20T09:08:02.831Z,95810.75
2019-05-20T09:10:26.869Z,95818.88
2019-05-20T09:12:53.916Z,95815.64
2019-05-20T09:15:21.200Z,95832.62
2019-05-20T09:17:48.366Z,95823.55
2019-05-20T09:20:15.773Z,95832.68
2019-05-20T09:22:42.995Z,95825.34
2019-05-20T09:25:10.976Z,95825.14
2019-05-20T09:27:38.663Z,95820.20
2019-05-20T09:30:07.156Z,95826.44
2019-05-20T09:32:34.596Z,95819.72
2019-05-20T09:35:06.726Z,95820.81
2019-05-20T09:37:33.992Z,95829.92
2019-05-20T09:40:01.832Z,95829.27
2019-05-20T09:42:28.838Z,95839.43
2019-05-20T09:44:56.304Z,95819.18
2019-05-20T09:47:23.493Z,95833.86
2019-05-20T09:49:50.594Z,95832.54
2019-05-20T09:52:17.887Z,95827.94
2019-05-20T09:54:45.747Z,95839.98
2019-05-20T09:57:13.203Z,95847.30
2019-05-20T09:59:43.228Z,95848.47
2019-05-20T10:02:09.506Z,95847.84
2019-05-20T10:04:36.486Z,95833.84
2019-05-20T10:07:04.014Z,95842.58
2019-05-20T10:09:31.144Z,95842.12
2019-05-20T10:11:58.412Z,95841.72
2019-05-20T10:14:25.634Z,95847.58
2019-05-20T10:16:52.647Z,95844.52
2019-05-20T10:19:19.659Z,95845.12
2019-05-20T10:21:47.128Z,95841.09
2019-05-20T10:24:14.204Z,95843.52
2019-05-20T10:26:41.600Z,95849.23
2019-05-20T10:29:08.635Z,95852.13
2019-05-20T10:31:35.631Z,95858.50
2019-05-20T10:34:03.491Z,95860.25
2019-05-20T10:36:30.644Z,95857.23
2019-05-20T10:38:59.490Z,95866.91
2019-05-20T10:41:29.532Z,95867.86
2019-05-20T10:43:56.143Z,95866.32
2019-05-20T10:46:23.605Z,95872.22
2019-05-20T10:48:51.396Z,95878.88
2019-05-20T10:51:18.839Z,95880.53
2019-05-20T10:53:46.109Z,95876.59
2019-05-20T10:56:13.618Z,95879.04
2019-05-20T10:58:41.146Z,95870.87
2019-05-20T11:01:08.687Z,95871.52
2019-05-20T11:03:35.787Z,95869.36
2019-05-20T11:06:03.038Z,95868.73
2019-05-20T11:08:30.445Z,95872.34
2019-05-20T11:10:57.588Z,95874.55
2019-05-20T11:13:25.144Z,95885.64
2019-05-20T11:15:52.220Z,95885.94
2019-05-20T11:18:19.546Z,95892.84
2019-05-20T11:20:46.912Z,95888.78
2019-05-20T11:23:13.998Z,95888.70
2019-05-20T11:25:41.056Z,95900.02
2019-05-20T11:28:11.829Z,95900.73
2019-05-20T11:30:37.425Z,95897.66
2019-05-20T11:33:04.807Z,95909.96
2019-05-20T11:35:32.007Z,95905.92
2019-05-20T11:37:59.345Z,95902.89
2019-05-20T11:40:26.737Z,95904.52
2019-05-20T11:42:53.967Z,95912.62
2019-05-20T11:45:21.368Z,95912.19
2019-05-20T11:47:48.486Z,95922.56
2019-05-20T11:50:16.729Z,95918.61
2019-05-20T11:52:43.944Z,95914.48
2019-05-20T11:55:11.453Z,95916.75
2019-05-20T11:57:38.658Z,95913.79
2019-05-20T12:00:10.797Z,95900.36
2019-05-20T12:02:37.955Z,95910.11
2019-05-20T12:05:07.706Z,95905.23
2019-05-20T12:07:34.919Z,95902.12
2019-05-20T12:10:06.074Z,95909.56
2019-05-20T12:12:33.541Z,95908.60
2019-05-20T12:15:02.792Z,95905.39
2019-05-20T12:17:30.860Z,95906.60
2019-05-20T12:19:58.457Z,95909.59
2019-05-20T12:22:25.578Z,95911.59
2019-05-20T12:24:53.283Z,95911.55
2019-05-20T12:27:20.422Z,95902.63
2019-05-20T12:29:47.687Z,95909.83
2019-05-20T12:32:15.034Z,95906.17
2019-05-20T12:34:42.090Z,95903.73
2019-05-20T12:37:09.219Z,95901.73
2019-05-20T12:39:36.423Z,95900.01
2019-05-20T12:42:03.954Z,95900.02
2019-05-20T12:44:31.101Z,95902.25
2019-05-20T12:46:58.409Z,95904.70
2019-05-20T12:49:25.689Z,95905.72
2019-05-20T12:51:52.934Z,95890.27
2019-05-20T12:54:20.204Z,95885.59
2019-05-20T12:56:47.235Z,95879.88
2019-05-20T12:59:14.339Z,95872.63
2019-05-20T13:01:41.584Z,95875.21
2019-05-20T13:04:08.867Z,95870.56
2019-05-20T13:06:36.216Z,95867.45
2019-05-20T13:09:05.872Z,95864.86
2019-05-20T13:11:32.987Z,95856.31
2019-05-20T13:14:00.105Z,95855.25
2019-05-20T13:16:27.002Z,95853.09
2019-05-20T13:18:56.321Z,95849.73
2019-05-20T13:21:23.072Z,95844.91
2019-05-20T13:23:50.307Z,95838.42
2019-05-20T13:26:17.271Z,95833.32
2019-05-20T13:28:44.503Z,95827.01
2019-05-20T13:31:11.554Z,95823.22
2019-05-20T13:33:38.660Z,95818.46
2019-05-20T13:36:05.705Z,95821.05
2019-05-20T13:38:32.742Z,95826.41
2019-05-20T13:40:59.767Z,95822.08
2019-05-20T13:43:27.153Z,95825.56
2019-05-20T13:45:54.155Z,95825.20
2019-05-20T13:48:21.206Z,95820.39
2019-05-20T13:50:48.641Z,95822.02
2019-05-20T13:53:15.875Z,95811.22
2019-05-20T13:55:43.405Z,95804.48
2019-05-20T13:58:10.404Z,95806.39
2019-05-20T14:00:37.568Z,95811.21
2019-05-20T14:03:04.947Z,95811.39
2019-05-20T14:05:32.189Z,95801.89
2019-05-20T14:07:59.804Z,95792.56
2019-05-20T14:10:27.155Z,95791.67
2019-05-20T14:12:54.453Z,95796.52
2019-05-20T14:15:21.682Z,95795.81
2019-05-20T14:17:49.021Z,95781.91
2019-05-20T14:20:16.737Z,95786.64
2019-05-20T14:22:43.723Z,95798.55
2019-05-20T14:25:13.134Z,95793.36
2019-05-20T14:27:40.591Z,95799.41
2019-05-20T14:30:08.609Z,95801.64
2019-05-20T14:32:35.750Z,95800.95
2019-05-20T14:35:04.718Z,95802.22
2019-05-20T14:37:31.835Z,95806.28
2019-05-20T14:39:59.031Z,95809.72
2019-05-20T14:42:26.365Z,95811.45
2019-05-20T14:44:53.476Z,95811.27
2019-05-20T14:47:20.871Z,95814.13
2019-05-20T14:49:47.822Z,95818.21
2019-05-20T14:52:14.866Z,95807.34
2019-05-20T14:54:41.912Z,95809.59
2019-05-20T14:57:09.100Z,95812.17
2019-05-20T14:59:36.275Z,95803.27
2019-05-20T15:02:03.405Z,95802.50
2019-05-20T15:04:30.645Z,95801.83
2019-05-20T15:06:58.064Z,95802.52
2019-05-20T15:09:25.081Z,95809.72
2019-05-20T15:11:52.441Z,95811.35
2019-05-20T15:14:19.601Z,95799.34
2019-05-20T15:16:46.963Z,95806.25
2019-05-20T15:19:13.849Z,95798.84
2019-05-20T15:21:40.804Z,95810.08
2019-05-20T15:24:07.875Z,95801.00
2019-05-20T15:26:35.260Z,95794.70
2019-05-20T15:29:04.014Z,95810.51
2019-05-20T15:31:31.611Z,95812.06
2019-05-20T15:33:58.625Z,95813.59
2019-05-20T15:36:25.759Z,95810.69
2019-05-20T15:38:53.252Z,95805.16
2019-05-20T15:41:20.965Z,95805.58
2019-05-20T15:43:48.005Z,95814.30
2019-05-20T15:46:15.328Z,95824.52
2019-05-20T15:48:42.427Z,95821.58
2019-05-20T15:51:09.822Z,95814.57
2019-05-20T15:53:36.978Z,95814.86
2019-05-20T15:56:04.125Z,95812.42
2019-05-20T15:58:30.955Z,95813.30
2019-05-20T16:00:58.057Z,95806.89
2019-05-20T16:03:25.271Z,95806.39
2019-05-20T16:05:52.746Z,95803.81
2019-05-20T16:08:20.181Z,95793.86
2019-05-20T16:10:47.152Z,95803.61
2019-05-20T16:13:14.228Z,95799.98
2019-05-20T16:15:41.661Z,95795.92
2019-05-20T16:18:08.789Z,95801.19
2019-05-20T16:20:36.031Z,95794.53
2019-05-20T16:23:03.501Z,95794.78
2019-05-20T16:25:30.517Z,95785.47
2019-05-20T16:27:57.593Z,95791.23
2019-05-20T16:30:24.800Z,95786.41
2019-05-20T16:32:51.974Z,95793.23
2019-05-20T16:35:19.139Z,95794.16
2019-05-20T16:37:46.340Z,95793.89
2019-05-20T16:40:14.468Z,95788.53
2019-05-20T16:42:41.627Z,95796.55
2019-05-20T16:45:11.776Z,95799.30
2019-05-20T16:47:39.261Z,95807.91
2019-05-20T16:50:08.306Z,95805.27
2019-05-20T16:52:36.159Z,95796.55
2019-05-20T16:55:04.667Z,95798.22
2019-05-20T16:57:32.118Z,95810.09
2019-05-20T16:59:59.205Z,95806.28
2019-05-20T17:02:26.205Z,95819.20
2019-05-20T17:04:53.463Z,95818.92
2019-05-20T17:07:20.490Z,95817.92
2019-05-20T17:09:47.561Z,95826.34
2019-05-20T17:12:14.545Z,95822.16
2019-05-20T17:14:41.936Z,95822.44
2019-05-20T17:17:08.931Z,95818.63
2019-05-20T17:19:36.246Z,95812.59
2019-05-20T17:22:04.667Z,95823.06
2019-05-20T17:24:31.681Z,95820.55
2019-05-20T17:27:00.072Z,95815.30
2019-05-20T17:29:27.568Z,95830.08
2019-05-20T17:31:54.957Z,95834.45
2019-05-20T17:34:22.343Z,95838.66
2019-05-20T17:36:49.412Z,95845.41
2019-05-20T17:39:16.947Z,95839.05
2019-05-20T17:41:44.086Z,95829.16
2019-05-20T17:44:11.477Z,95827.54
2019-05-20T17:46:38.664Z,95839.08
2019-05-20T17:49:06.078Z,95840.02
2019-05-20T17:51:33.177Z,95844.84
2019-05-20T17:54:00.523Z,95840.86
2019-05-20T17:56:27.516Z,95837.09
2019-05-20T17:58:54.441Z,95845.84
2019-05-20T18:01:21.499Z,95852.27
2019-05-20T18:03:48.560Z,95854.98
2019-05-20T18:06:15.992Z,95859.80
2019-05-20T18:08:45.166Z,95862.06
2019-05-20T18:11:12.519Z,95857.64
2019-05-20T18:13:39.447Z,95862.09
2019-05-20T18:16:06.555Z,95858.99
2019-05-20T18:18:33.842Z,95864.55
2019-05-20T18:21:01.012Z,95863.38
2019-05-20T18:23:28.182Z,95870.44
2019-05-20T18:25:55.411Z,95872.01
2019-05-20T18:28:22.834Z,95872.20
2019-05-20T18:30:50.242Z,95865.92
2019-05-20T18:33:17.597Z,95874.56
2019-05-20T18:35:44.847Z,95871.84
2019-05-20T18:38:11.959Z,95866.80
2019-05-20T18:40:39.141Z,95869.59
2019-05-20T18:43:06.348Z,95867.66
2019-05-20T18:45:33.387Z,95868.27
2019-05-20T18:48:00.389Z,95873.22
2019-05-20T18:50:27.774Z,95868.72
2019-05-20T18:52:54.784Z,95874.85
2019-05-20T18:55:21.744Z,95861.34
2019-05-20T18:57:48.849Z,95872.59
2019-05-20T19:00:16.425Z,95875.97
2019-05-20T19:02:43.823Z,95875.61
2019-05-20T19:05:11.461Z,95869.78
2019-05-20T19:07:38.532Z,95870.98
2019-05-20T19:10:06.234Z,95876.14
2019-05-20T19:12:33.539Z,95871.48
2019-05-20T19:15:00.705Z,95871.34
2019-05-20T19:17:28.459Z,95874.14
2019-05-20T19:19:55.730Z,95869.88
2019-05-20T19:22:22.873Z,95868.53
2019-05-20T19:24:50.615Z,95863.28
2019-05-20T19:27:17.820Z,95870.95
2019-05-20T19:29:44.870Z,95860.59
2019-05-20T19:32:14.315Z,95860.19
2019-05-20T19:34:41.660Z,95868.06
2019-05-20T19:37:08.721Z,95869.64
2019-05-20T19:39:35.618Z,95864.23
2019-05-20T19:42:03.058Z,95862.94
2019-05-20T19:44:30.671Z,95868.09
2019-05-20T19:46:57.623Z,95867.69
2019-05-20T19:49:24.725Z,95870.82
2019-05-20T19:51:51.779Z,95863.22
2019-05-20T19:54:19.025Z,95860.28
2019-05-20T19:56:45.957Z,95860.09
2019-05-20T19:59:13.416Z,95853.82
2019-05-20T20:01:40.306Z,95853.04
2019-05-20T20:04:07.969Z,95857.93
2019-05-20T20:06:35.160Z,95851.86
2019-05-20T20:09:04.009Z,95847.56
2019-05-20T20:11:31.003Z,95864.78
2019-05-20T20:13:58.156Z,95862.06
2019-05-20T20:16:25.619Z,95858.56
2019-05-20T20:18:52.744Z,95859.97
2019-05-20T20:21:20.070Z,95856.27
2019-05-20T20:23:46.975Z,95861.14
2019-05-20T20:26:13.897Z,95861.36
2019-05-20T20:28:41.040Z,95862.73
2019-05-20T20:31:10.888Z,95854.13
2019-05-20T20:33:37.224Z,95861.96
2019-05-20T20:36:04.657Z,95864.09
2019-05-20T20:38:31.969Z,95864.89
2019-05-20T20:40:58.986Z,95860.56
2019-05-20T20:43:26.232Z,95856.84
2019-05-20T20:45:53.285Z,95860.77
2019-05-20T20:48:20.554Z,95860.97
2019-05-20T20:50:47.469Z,95862.53
2019-05-20T20:53:14.589Z,95871.92
2019-05-20T20:55:41.809Z,95874.66
2019-05-20T20:58:08.939Z,95876.02
2019-05-20T21:00:35.961Z,95866.83
2019-05-20T21:03:03.298Z,95860.56
2019-05-20T21:05:30.511Z,95871.33
2019-05-20T21:07:57.457Z,95874.26
2019-05-20T21:10:24.721Z,95880.92
2019-05-20T21:12:52.151Z,95887.78
2019-05-20T21:15:19.455Z,95891.48
2019-05-20T21:17:46.451Z,95894.03
2019-05-20T21:20:13.656Z,95900.06
2019-05-20T21:22:40.708Z,95900.66
2019-05-20T21:25:08.047Z,95889.12
2019-05-20T21:27:35.087Z,95888.92
2019-05-20T21:30:07.127Z,95889.70
2019-05-20T21:32:33.939Z,95885.20
2019-05-20T21:35:00.880Z,95892.45
2019-05-20T21:37:28.203Z,95886.38
2019-05-20T21:39:55.247Z,95892.42
2019-05-20T21:42:22.251Z,95890.86
2019-05-20T21:44:49.309Z,95889.12
2019-05-20T21:47:16.586Z,95889.50
2019-05-20T21:49:43.402Z,95894.38
2019-05-20T21:52:10.313Z,95892.02
2019-05-20T21:54:37.799Z,95894.73
2019-05-20T21:57:04.897Z,95881.45
2019-05-20T21:59:31.765Z,95879.08
2019-05-20T22:01:58.661Z,95877.70
2019-05-20T22:04:27.077Z,95878.28
2019-05-20T22:06:54.777Z,95884.32
2019-05-20T22:09:22.323Z,95887.21
2019-05-20T22:11:49.890Z,95885.63
2019-05-20T22:14:17.200Z,95884.78
2019-05-20T22:16:44.623Z,95883.39
2019-05-20T22:19:15.286Z,95882.95
2019-05-20T22:21:47.379Z,95877.67
2019-05-20T22:24:19.715Z,95876.87
2019-05-20T22:26:47.646Z,95885.45
2019-05-20T22:29:15.148Z,95889.95
2019-05-20T22:31:42.578Z,95881.77
2019-05-20T22:34:10.175Z,95886.06
2019-05-20T22:36:37.620Z,95880.77
2019-05-20T22:39:06.945Z,95875.66
2019-05-20T22:41:34.432Z,95878.97
2019-05-20T22:44:02.088Z,95878.14
2019-05-20T22:46:29.463Z,95873.06
2019-05-20T22:48:56.987Z,95865.03
2019-05-20T22:51:24.559Z,95866.95
2019-05-20T22:53:52.304Z,95865.38
2019-05-20T22:56:19.702Z,95863.25
2019-05-20T22:58:47.119Z,95868.31
2019-05-20T23:01:15.220Z,95862.06
2019-05-20T23:03:55.665Z,95870.66
2019-05-20T23:06:14.007Z,95869.27
2019-05-20T23:08:41.549Z,95869.02
2019-05-20T23:11:09.110Z,95862.49
2019-05-20T23:13:36.596Z,95862.65
2019-05-20T23:16:04.106Z,95864.71
2019-05-20T23:18:31.647Z,95863.08
2019-05-20T23:20:59.273Z,95864.72
2019-05-20T23:23:26.660Z,95874.20
2019-05-20T23:25:54.243Z,95866.65
2019-05-20T23:28:21.509Z,95858.09
2019-05-20T23:30:48.915Z,95862.78
2019-05-20T23:33:16.440Z,95847.98
2019-05-20T23:35:43.827Z,95846.41
2019-05-20T23:38:11.579Z,95844.25
2019-05-20T23:40:38.986Z,95845.16
2019-05-20T23:43:06.606Z,95838.13
2019-05-20T23:45:34.248Z,95839.32
2019-05-20T23:48:01.844Z,95835.04
2019-05-20T23:50:29.802Z,95832.31
2019-05-20T23:52:57.399Z,95832.52
2019-05-20T23:55:24.898Z,95835.81
2019-05-20T23:57:52.424Z,95854.27
